Time;durP1;ratioP1;P1;durP2;ratioP2;P2;SDS_P1;SDS_P2;PMS_P1;PMS_P2;Temp;Humidity;BMP_temperature;BMP_pressure;BME280_temperature;BME280_humidity;BME280_pressure;Samples;Min_cycle;Max_cycle;Signal;HPM_P1;HPM_P2
2023/09/30 00:02:12;;;;;;;26.30;7.60;;;13.00;92.20;;;;;;4976821;28;20179;-87
2023/09/30 00:04:38;;;;;;;25.63;6.63;;;13.10;92.20;;;;;;4977604;28;20197;-86
2023/09/30 00:07:04;;;;;;;20.53;6.30;;;13.10;92.10;;;;;;4978083;28;20221;-88
2023/09/30 00:09:30;;;;;;;30.30;7.57;;;13.20;92.10;;;;;;4978242;28;20167;-86
2023/09/30 00:11:55;;;;;;;27.87;7.63;;;13.20;92.00;;;;;;4977799;28;20171;-86
2023/09/30 00:14:21;;;;;;;22.37;7.30;;;13.20;91.90;;;;;;4977936;28;20190;-86
2023/09/30 00:16:47;;;;;;;21.17;7.83;;;13.20;91.80;;;;;;4977708;28;20203;-87
2023/09/30 00:19:13;;;;;;;27.23;6.97;;;13.30;91.70;;;;;;4976411;28;20178;-86
2023/09/30 00:21:39;;;;;;;23.13;7.30;;;13.20;91.70;;;;;;4978042;28;20163;-87
2023/09/30 00:24:05;;;;;;;22.30;7.47;;;13.20;91.70;;;;;;4976431;28;20198;-86
2023/09/30 00:26:30;;;;;;;23.37;7.17;;;13.20;91.60;;;;;;4977511;28;20222;-87
2023/09/30 00:28:56;;;;;;;20.60;8.03;;;13.20;91.70;;;;;;4976646;28;20175;-87
2023/09/30 00:31:22;;;;;;;16.73;6.20;;;13.20;91.70;;;;;;4977548;28;20171;-86
2023/09/30 00:33:48;;;;;;;20.23;7.03;;;13.20;91.80;;;;;;4978206;28;20576;-86
2023/09/30 00:36:13;;;;;;;18.27;6.73;;;13.20;91.90;;;;;;4975163;28;20171;-87
2023/09/30 00:38:40;;;;;;;18.53;7.17;;;13.20;91.80;;;;;;4977802;28;20178;-86
2023/09/30 00:41:07;;;;;;;18.17;7.17;;;13.30;91.70;;;;;;4977536;28;20171;-87
2023/09/30 00:43:33;;;;;;;18.97;6.67;;;13.30;91.70;;;;;;4977301;28;20589;-86
2023/09/30 00:46:06;;;;;;;24.63;6.73;;;13.30;91.60;;;;;;4975972;28;20265;-86
2023/09/30 00:48:34;;;;;;;17.07;7.37;;;13.30;91.50;;;;;;4977629;28;20648;-87
2023/09/30 00:51:00;;;;;;;20.03;7.70;;;13.30;91.50;;;;;;4977373;28;20247;-88
2023/09/30 00:53:25;;;;;;;28.30;7.23;;;13.30;91.40;;;;;;4975601;28;20230;-86
2023/09/30 00:55:53;;;;;;;25.63;7.00;;;13.20;91.40;;;;;;4977094;28;20713;-86
2023/09/30 00:58:19;;;;;;;21.87;7.00;;;13.20;91.40;;;;;;4977087;28;20259;-86
2023/09/30 01:00:45;;;;;;;22.10;7.60;;;13.20;91.50;;;;;;4976914;28;20167;-86
2023/09/30 01:03:12;;;;;;;28.70;7.83;;;13.10;91.60;;;;;;4975595;28;20202;-87
2023/09/30 01:05:38;;;;;;;25.20;7.17;;;13.00;91.60;;;;;;4977134;28;20309;-86
2023/09/30 01:08:04;;;;;;;19.97;6.20;;;13.00;91.60;;;;;;4975719;28;20202;-87
2023/09/30 01:10:29;;;;;;;15.93;6.53;;;13.00;91.60;;;;;;4975675;28;20257;-87
2023/09/30 01:12:55;;;;;;;22.33;6.73;;;12.90;91.60;;;;;;4976944;28;20221;-87
2023/09/30 01:15:20;;;;;;;22.03;7.03;;;12.90;91.70;;;;;;4976759;28;20191;-88
2023/09/30 01:17:46;;;;;;;17.50;6.57;;;12.90;91.60;;;;;;4975439;28;20681;-87
2023/09/30 01:20:22;;;;;;;21.67;6.90;;;12.90;91.70;;;;;;4976774;28;20201;-86
2023/09/30 01:22:47;;;;;;;19.90;6.20;;;12.80;91.70;;;;;;4975378;28;20177;-88
2023/09/30 01:25:13;;;;;;;21.67;6.87;;;12.80;91.80;;;;;;4977083;28;20199;-87
2023/09/30 01:27:38;;;;;;;24.13;7.07;;;12.80;91.80;;;;;;4976624;28;20175;-87
2023/09/30 01:30:04;;;;;;;25.80;8.10;;;12.80;91.80;;;;;;4976561;28;20171;-87
2023/09/30 01:32:30;;;;;;;18.40;6.70;;;12.80;91.80;;;;;;4975069;28;20205;-87
2023/09/30 01:34:55;;;;;;;18.80;5.80;;;12.80;91.90;;;;;;4976246;28;20191;-87
2023/09/30 01:37:21;;;;;;;20.80;6.97;;;12.80;91.80;;;;;;4975221;28;20171;-87
2023/09/30 01:39:48;;;;;;;23.90;7.13;;;12.80;91.80;;;;;;4976393;28;20250;-87
2023/09/30 01:42:14;;;;;;;19.93;6.97;;;12.80;91.90;;;;;;4976551;28;20178;-87
2023/09/30 01:44:40;;;;;;;21.63;6.73;;;12.80;91.80;;;;;;4976453;28;20198;-87
2023/09/30 01:47:05;;;;;;;22.43;6.80;;;12.80;91.80;;;;;;4975045;28;20274;-88
2023/09/30 01:49:31;;;;;;;25.13;7.43;;;12.80;91.80;;;;;;4975112;28;20580;-86
2023/09/30 01:51:56;;;;;;;24.00;6.70;;;12.70;91.90;;;;;;4976121;28;20194;-87
2023/09/30 01:54:22;;;;;;;20.20;6.87;;;12.70;92.00;;;;;;4976005;28;20199;-87
2023/09/30 01:56:47;;;;;;;24.07;7.07;;;12.60;92.00;;;;;;4976439;28;20190;-87
2023/09/30 01:59:13;;;;;;;24.57;7.30;;;12.50;92.10;;;;;;4974757;28;20261;-86
2023/09/30 02:01:38;;;;;;;16.63;6.70;;;12.50;92.20;;;;;;4975008;28;20179;-86
2023/09/30 02:04:06;;;;;;;25.03;7.30;;;12.50;92.30;;;;;;4975565;28;20200;-87
2023/09/30 02:06:32;;;;;;;27.83;7.33;;;12.50;92.40;;;;;;4975800;28;20273;-88
2023/09/30 02:08:57;;;;;;;16.37;6.40;;;12.60;92.40;;;;;;4974606;28;20325;-87
2023/09/30 02:11:23;;;;;;;21.83;7.20;;;12.50;92.40;;;;;;4975859;28;20221;-87
2023/09/30 02:13:48;;;;;;;23.77;7.50;;;12.50;92.40;;;;;;4975914;28;20721;-88
2023/09/30 02:16:14;;;;;;;26.90;8.80;;;12.50;92.40;;;;;;4975360;28;20233;-87
2023/09/30 02:18:42;;;;;;;22.47;6.90;;;12.50;92.50;;;;;;4974254;28;20179;-86
2023/09/30 02:21:08;;;;;;;24.00;6.93;;;12.40;92.50;;;;;;4974325;28;20209;-87
2023/09/30 02:23:35;;;;;;;18.10;6.77;;;12.40;92.50;;;;;;4974471;28;20213;-86
2023/09/30 02:26:01;;;;;;;18.57;6.67;;;12.40;92.60;;;;;;4974343;28;20665;-86
2023/09/30 02:28:27;;;;;;;19.13;7.10;;;12.40;92.70;;;;;;4974030;28;20571;-86
2023/09/30 02:30:53;;;;;;;27.43;7.80;;;12.40;92.80;;;;;;4975509;28;20178;-86
2023/09/30 02:33:19;;;;;;;16.30;6.50;;;12.40;92.80;;;;;;4975747;28;20225;-86
2023/09/30 02:35:45;;;;;;;19.47;7.17;;;12.40;92.80;;;;;;4975288;28;20686;-86
2023/09/30 02:38:11;;;;;;;25.10;7.77;;;12.40;92.80;;;;;;4973948;28;20171;-87
2023/09/30 02:40:38;;;;;;;17.30;6.93;;;12.40;92.80;;;;;;4973866;28;20270;-86
2023/09/30 02:43:04;;;;;;;22.43;7.00;;;12.30;92.80;;;;;;4974184;28;20194;-87
2023/09/30 02:45:29;;;;;;;20.37;6.60;;;12.40;92.80;;;;;;4975379;28;20202;-86
2023/09/30 02:47:55;;;;;;;26.47;8.00;;;12.40;92.90;;;;;;4975263;28;20551;-87
2023/09/30 02:50:21;;;;;;;26.60;7.07;;;12.30;92.90;;;;;;4973535;28;20182;-86
2023/09/30 02:52:46;;;;;;;23.57;7.13;;;12.30;92.90;;;;;;4975461;28;20693;-87
2023/09/30 02:55:12;;;;;;;23.67;10.13;;;12.30;93.00;;;;;;4973534;28;20194;-86
2023/09/30 02:57:39;;;;;;;29.03;10.80;;;12.30;93.00;;;;;;4974700;28;20178;-87
2023/09/30 03:00:20;;;;;;;26.10;9.40;;;12.30;93.00;;;;;;4973655;28;20265;-87
2023/09/30 03:02:46;;;;;;;19.80;7.43;;;12.30;93.00;;;;;;4975059;28;20163;-87
2023/09/30 03:05:13;;;;;;;22.17;8.53;;;12.30;93.10;;;;;;4974950;28;20313;-86
2023/09/30 03:07:38;;;;;;;25.27;10.80;;;12.30;93.10;;;;;;4974739;28;20642;-86
2023/09/30 03:10:04;;;;;;;30.47;11.27;;;12.30;93.10;;;;;;4974782;28;20178;-87
2023/09/30 03:12:31;;;;;;;27.73;7.27;;;12.30;93.10;;;;;;4974643;28;20221;-87
2023/09/30 03:14:56;;;;;;;23.33;7.97;;;12.20;93.20;;;;;;4973335;28;20194;-86
2023/09/30 03:17:22;;;;;;;21.93;9.37;;;12.30;93.20;;;;;;4974791;28;20205;-86
2023/09/30 03:19:48;;;;;;;27.63;9.83;;;12.30;93.20;;;;;;4974972;28;20170;-87
2023/09/30 03:22:13;;;;;;;29.27;11.57;;;12.30;93.20;;;;;;4974771;28;20186;-87
2023/09/30 03:24:39;;;;;;;22.80;7.53;;;12.30;93.20;;;;;;4974765;28;20198;-87
2023/09/30 03:27:05;;;;;;;22.07;9.07;;;12.30;93.20;;;;;;4974734;28;20713;-86
2023/09/30 03:29:31;;;;;;;21.73;7.90;;;12.20;93.10;;;;;;4974684;28;20263;-86
2023/09/30 03:31:56;;;;;;;23.63;7.70;;;12.20;93.20;;;;;;4973373;28;20178;-87
2023/09/30 03:34:22;;;;;;;24.33;8.80;;;12.30;93.30;;;;;;4974713;28;20195;-88
2023/09/30 03:36:47;;;;;;;25.90;8.20;;;12.30;93.30;;;;;;4974802;28;20170;-87
2023/09/30 03:39:15;;;;;;;23.97;8.53;;;12.30;93.30;;;;;;4974667;28;20599;-87
2023/09/30 03:41:40;;;;;;;20.37;8.33;;;12.30;93.30;;;;;;4974732;28;20190;-87
2023/09/30 03:44:06;;;;;;;24.87;9.00;;;12.30;93.20;;;;;;4974848;28;20198;-87
2023/09/30 03:46:32;;;;;;;28.60;9.47;;;12.30;93.20;;;;;;4974708;28;20214;-87
2023/09/30 03:48:57;;;;;;;18.20;8.37;;;12.20;93.20;;;;;;4974478;28;20202;-87
2023/09/30 03:51:25;;;;;;;25.83;9.43;;;12.20;93.20;;;;;;4973488;28;20643;-87
2023/09/30 03:53:51;;;;;;;25.63;9.93;;;12.20;93.20;;;;;;4974340;28;20297;-87
2023/09/30 03:56:18;;;;;;;27.63;10.27;;;12.30;93.20;;;;;;4974432;28;20167;-87
2023/09/30 03:58:44;;;;;;;28.17;9.83;;;12.30;93.20;;;;;;4974370;28;20730;-86
2023/09/30 04:01:13;;;;;;;25.30;9.40;;;12.20;93.20;;;;;;4974469;28;20250;-87
2023/09/30 04:03:39;;;;;;;23.20;8.67;;;12.20;93.20;;;;;;4974599;28;20175;-86
2023/09/30 04:06:06;;;;;;;27.17;9.33;;;12.20;93.20;;;;;;4973125;28;20205;-86
2023/09/30 04:08:33;;;;;;;30.67;9.50;;;12.20;93.20;;;;;;4974172;28;20282;-87
2023/09/30 04:10:59;;;;;;;29.43;9.90;;;12.20;93.20;;;;;;4975159;28;20190;-86
2023/09/30 04:13:25;;;;;;;27.93;9.67;;;12.20;93.30;;;;;;4976390;28;20203;-89
2023/09/30 04:15:51;;;;;;;22.77;8.80;;;12.20;93.30;;;;;;4977812;28;20173;-86
2023/09/30 04:18:16;;;;;;;20.63;9.40;;;12.20;93.30;;;;;;4977818;28;20171;-87
2023/09/30 04:20:42;;;;;;;26.60;8.97;;;12.20;93.30;;;;;;4977790;28;20171;-86
2023/09/30 04:23:09;;;;;;;29.63;9.67;;;12.20;93.30;;;;;;4976675;28;20626;-87
2023/09/30 04:25:35;;;;;;;23.10;8.97;;;12.20;93.30;;;;;;4978177;28;20206;-86
2023/09/30 04:28:03;;;;;;;28.07;9.43;;;12.20;93.20;;;;;;4977540;28;20594;-86
2023/09/30 04:30:29;;;;;;;25.30;9.13;;;12.20;93.20;;;;;;4976175;28;20186;-86
2023/09/30 04:32:54;;;;;;;23.07;9.90;;;12.20;93.20;;;;;;4977423;28;20194;-86
2023/09/30 04:35:21;;;;;;;26.47;9.70;;;12.20;93.10;;;;;;4977522;28;20198;-87
2023/09/30 04:37:47;;;;;;;25.93;9.53;;;12.30;93.10;;;;;;4976546;28;20228;-87
2023/09/30 04:40:15;;;;;;;35.07;9.40;;;12.30;93.10;;;;;;4977306;28;20253;-87
2023/09/30 04:42:43;;;;;;;22.90;9.90;;;12.30;93.10;;;;;;4976801;28;20205;-86
2023/09/30 04:45:10;;;;;;;28.17;9.10;;;12.30;93.10;;;;;;4977416;28;20736;-87
2023/09/30 04:47:35;;;;;;;25.30;8.67;;;12.30;93.10;;;;;;4976324;28;20302;-87
2023/09/30 04:50:07;;;;;;;24.33;8.43;;;12.20;93.10;;;;;;4977033;28;20202;-87
2023/09/30 04:52:32;;;;;;;20.07;8.73;;;12.20;93.20;;;;;;4977302;28;20202;-87
2023/09/30 04:54:59;;;;;;;33.43;9.63;;;12.20;93.20;;;;;;4977253;28;20189;-86
2023/09/30 04:57:26;;;;;;;23.93;8.10;;;12.20;93.20;;;;;;4976114;28;20182;-88
2023/09/30 04:59:51;;;;;;;24.77;8.50;;;12.20;93.20;;;;;;4976911;28;20246;-86
2023/09/30 05:02:17;;;;;;;29.53;9.67;;;12.20;93.20;;;;;;4977320;28;20214;-86
2023/09/30 05:04:42;;;;;;;37.00;9.93;;;12.20;93.30;;;;;;4975608;28;20645;-87
2023/09/30 05:07:08;;;;;;;18.10;8.57;;;12.30;93.30;;;;;;4977144;28;20179;-87
2023/09/30 05:09:34;;;;;;;22.80;9.00;;;12.30;93.30;;;;;;4977086;28;20206;-87
2023/09/30 05:11:59;;;;;;;26.17;7.90;;;12.30;93.20;;;;;;4975881;28;20190;-88
2023/09/30 05:14:25;;;;;;;23.60;8.63;;;12.30;93.30;;;;;;4975842;28;20197;-87
2023/09/30 05:16:50;;;;;;;22.80;9.50;;;12.30;93.30;;;;;;4976956;28;20705;-87
2023/09/30 05:19:16;;;;;;;22.93;8.90;;;12.30;93.30;;;;;;4975409;28;20198;-86
2023/09/30 05:21:42;;;;;;;23.47;9.00;;;12.20;93.30;;;;;;4976449;28;20171;-87
2023/09/30 05:24:08;;;;;;;20.83;8.90;;;12.20;93.30;;;;;;4976146;28;20296;-86
2023/09/30 05:26:34;;;;;;;26.20;9.13;;;12.20;93.30;;;;;;4974919;28;20182;-86
2023/09/30 05:28:59;;;;;;;22.83;8.97;;;12.30;93.30;;;;;;4974860;28;20187;-87
2023/09/30 05:31:25;;;;;;;27.37;10.90;;;12.30;93.30;;;;;;4976487;28;20182;-87
2023/09/30 05:33:50;;;;;;;28.43;11.60;;;12.20;93.30;;;;;;4976105;28;20626;-86
2023/09/30 05:36:16;;;;;;;19.80;7.70;;;12.20;93.30;;;;;;4976019;28;20226;-86
2023/09/30 05:38:41;;;;;;;26.63;8.47;;;12.20;93.30;;;;;;4976495;28;20553;-87
2023/09/30 05:41:08;;;;;;;23.00;9.70;;;12.30;93.30;;;;;;4976227;28;20175;-86
2023/09/30 05:43:33;;;;;;;22.10;11.17;;;12.30;93.30;;;;;;4976435;28;20229;-86
2023/09/30 05:45:59;;;;;;;29.47;11.80;;;12.30;93.30;;;;;;4976346;28;20666;-87
2023/09/30 05:48:24;;;;;;;20.90;9.00;;;12.30;93.30;;;;;;4976592;28;20174;-88
2023/09/30 05:50:50;;;;;;;23.20;9.00;;;12.30;93.30;;;;;;4976003;28;20182;-86
2023/09/30 05:53:16;;;;;;;25.67;8.63;;;12.30;93.30;;;;;;4976308;28;20202;-87
2023/09/30 05:55:43;;;;;;;21.93;10.60;;;12.30;93.30;;;;;;4976215;28;20194;-87
2023/09/30 05:58:13;;;;;;;20.17;10.57;;;12.30;93.20;;;;;;4975951;28;20202;-87
2023/09/30 06:00:42;;;;;;;24.97;8.20;;;12.30;93.20;;;;;;4975900;28;20175;-87
2023/09/30 06:03:08;;;;;;;23.23;7.90;;;12.30;93.20;;;;;;4975882;28;20189;-87
2023/09/30 06:05:38;;;;;;;19.60;10.17;;;12.30;93.20;;;;;;4974406;28;20214;-86
2023/09/30 06:08:04;;;;;;;25.50;11.60;;;12.30;93.20;;;;;;4974291;28;20265;-87
2023/09/30 06:10:30;;;;;;;29.40;12.10;;;12.30;93.20;;;;;;4974677;28;20193;-87
2023/09/30 06:12:56;;;;;;;21.40;8.53;;;12.30;93.20;;;;;;4974429;28;20206;-88
2023/09/30 06:15:25;;;;;;;25.87;8.87;;;12.30;93.20;;;;;;4975805;28;20566;-86
2023/09/30 06:17:55;;;;;;;21.33;8.93;;;12.30;93.10;;;;;;4974362;28;20213;-87
2023/09/30 06:20:22;;;;;;;26.40;9.10;;;12.30;93.10;;;;;;4974541;28;20263;-87
2023/09/30 06:22:51;;;;;;;17.47;8.30;;;12.30;93.10;;;;;;4974430;28;20178;-87
2023/09/30 06:25:21;;;;;;;25.00;8.43;;;12.40;93.10;;;;;;4975400;28;20237;-87
2023/09/30 06:27:47;;;;;;;20.30;8.43;;;12.40;93.10;;;;;;4975937;28;20156;-87
2023/09/30 06:30:17;;;;;;;16.37;8.20;;;12.30;93.10;;;;;;4975497;28;20592;-87
2023/09/30 06:32:43;;;;;;;24.87;8.30;;;12.40;93.00;;;;;;4975011;28;20202;-87
2023/09/30 06:35:12;;;;;;;25.77;7.83;;;12.40;93.10;;;;;;4974314;28;20611;-87
2023/09/30 06:37:41;;;;;;;21.00;8.13;;;12.50;93.00;;;;;;4974502;28;20182;-87
2023/09/30 06:40:08;;;;;;;17.77;7.70;;;12.50;92.90;;;;;;4973940;28;20170;-87
2023/09/30 06:42:37;;;;;;;27.97;8.03;;;12.50;92.90;;;;;;4973904;28;20197;-87
2023/09/30 06:45:05;;;;;;;23.87;10.47;;;12.60;93.00;;;;;;4973754;28;20202;-87
2023/09/30 06:47:35;;;;;;;21.60;9.37;;;12.50;92.90;;;;;;4975232;28;20167;-88
2023/09/30 06:50:07;;;;;;;19.17;9.10;;;12.60;93.00;;;;;;4974955;28;20195;-87
2023/09/30 06:52:40;;;;;;;21.30;8.23;;;12.60;93.00;;;;;;4975705;28;20722;-88
2023/09/30 06:55:07;;;;;;;19.83;9.33;;;12.70;93.00;;;;;;4975057;28;20186;-87
2023/09/30 06:57:34;;;;;;;23.67;11.50;;;12.70;93.00;;;;;;4974914;28;20699;-87
2023/09/30 07:00:00;;;;;;;27.03;10.73;;;12.70;92.90;;;;;;4975055;28;20261;-86
2023/09/30 07:02:25;;;;;;;28.87;11.57;;;12.80;92.90;;;;;;4974075;28;20764;-86
2023/09/30 07:04:52;;;;;;;18.73;7.73;;;12.80;92.90;;;;;;4974920;28;20741;-87
2023/09/30 07:07:18;;;;;;;22.73;8.17;;;12.80;92.80;;;;;;4974791;28;20174;-87
2023/09/30 07:09:44;;;;;;;25.20;10.47;;;12.90;92.70;;;;;;4975087;28;20179;-87
2023/09/30 07:12:09;;;;;;;26.27;11.37;;;12.90;92.60;;;;;;4974937;28;20256;-87
2023/09/30 07:14:35;;;;;;;24.20;8.23;;;12.90;92.40;;;;;;4974791;28;20217;-87
2023/09/30 07:17:00;;;;;;;19.63;8.20;;;13.00;92.40;;;;;;4975007;28;20650;-87
2023/09/30 07:19:26;;;;;;;19.77;8.03;;;13.10;92.40;;;;;;4975034;28;20175;-86
2023/09/30 07:21:51;;;;;;;21.90;10.73;;;13.10;92.40;;;;;;4973987;28;20666;-86
2023/09/30 07:24:17;;;;;;;22.43;11.30;;;13.10;92.30;;;;;;4974780;28;20310;-87
2023/09/30 07:26:42;;;;;;;23.80;8.63;;;13.20;92.30;;;;;;4975272;28;20186;-87
2023/09/30 07:29:09;;;;;;;21.37;7.63;;;13.20;92.00;;;;;;4975450;28;20178;-88
2023/09/30 07:31:37;;;;;;;23.50;10.47;;;13.30;91.90;;;;;;4973150;28;20639;-87
2023/09/30 07:34:03;;;;;;;26.03;12.37;;;13.30;91.80;;;;;;4974246;28;20229;-89
2023/09/30 07:36:29;;;;;;;25.17;11.70;;;13.40;91.70;;;;;;4974315;28;20167;-88
2023/09/30 07:38:55;;;;;;;19.70;8.37;;;13.40;91.60;;;;;;4974255;28;20179;-87
2023/09/30 07:41:21;;;;;;;23.60;8.33;;;13.50;91.50;;;;;;4973015;28;20187;-87
2023/09/30 07:43:46;;;;;;;16.73;8.03;;;13.50;91.60;;;;;;4974168;28;20631;-88
2023/09/30 07:46:12;;;;;;;20.13;8.17;;;13.60;91.60;;;;;;4978252;28;20695;-87
2023/09/30 07:48:39;;;;;;;13.07;7.77;;;13.60;91.60;;;;;;4977971;28;20185;-86
2023/09/30 07:51:06;;;;;;;19.10;8.07;;;13.60;91.10;;;;;;4976922;28;20558;-88
2023/09/30 07:53:32;;;;;;;23.53;8.33;;;13.70;91.10;;;;;;4976570;28;20203;-88
2023/09/30 07:55:57;;;;;;;19.70;7.60;;;13.70;91.20;;;;;;4978238;28;20182;-90
2023/09/30 07:58:23;;;;;;;20.77;8.67;;;13.80;91.20;;;;;;4977799;28;20174;-88
2023/09/30 08:00:48;;;;;;;15.80;7.43;;;13.80;91.20;;;;;;4977795;28;20607;-88
2023/09/30 08:03:14;;;;;;;20.27;8.07;;;13.90;91.20;;;;;;4977922;28;20639;-87
2023/09/30 08:05:40;;;;;;;14.07;7.70;;;13.90;90.90;;;;;;4976597;28;20341;-89
2023/09/30 08:08:05;;;;;;;22.40;7.87;;;14.00;91.10;;;;;;4976523;28;20655;-88
2023/09/30 08:10:31;;;;;;;22.17;8.93;;;14.00;90.90;;;;;;4977900;28;20650;-87
2023/09/30 08:12:58;;;;;;;21.93;8.70;;;14.20;90.90;;;;;;4976186;28;20202;-88
2023/09/30 08:15:24;;;;;;;20.57;8.30;;;14.20;90.80;;;;;;4977600;28;20187;-88
2023/09/30 08:17:50;;;;;;;13.93;7.93;;;14.30;90.80;;;;;;4977562;28;20550;-87
2023/09/30 08:20:15;;;;;;;21.87;7.97;;;14.30;90.50;;;;;;4977086;28;20250;-87
2023/09/30 08:22:41;;;;;;;19.77;9.60;;;14.40;90.10;;;;;;4977576;28;20548;-86
2023/09/30 08:25:07;;;;;;;21.60;8.93;;;14.50;89.80;;;;;;4976250;28;20195;-87
2023/09/30 08:27:33;;;;;;;21.93;8.37;;;14.60;89.90;;;;;;4977183;28;20179;-87
2023/09/30 08:29:58;;;;;;;18.10;8.03;;;14.70;89.90;;;;;;4976008;28;20174;-87
2023/09/30 08:32:24;;;;;;;19.10;9.03;;;14.70;90.10;;;;;;4975882;28;20261;-86
2023/09/30 08:34:49;;;;;;;22.50;8.07;;;14.70;89.30;;;;;;4977210;28;20195;-87
2023/09/30 08:37:15;;;;;;;19.90;8.38;;;14.70;89.50;;;;;;4976071;28;20531;-86
2023/09/30 08:39:41;;;;;;;21.42;8.65;;;14.70;88.90;;;;;;4975940;28;20599;-87
2023/09/30 08:42:12;;;;;;;18.02;8.18;;;14.70;88.80;;;;;;4977039;28;20174;-87
2023/09/30 08:44:39;;;;;;;18.13;7.85;;;14.80;88.90;;;;;;4975845;28;20253;-87
2023/09/30 08:47:08;;;;;;;20.90;8.73;;;14.90;88.70;;;;;;4975855;28;20601;-87
2023/09/30 08:49:41;;;;;;;18.88;8.73;;;14.90;88.30;;;;;;4977162;28;20163;-88
2023/09/30 08:52:09;;;;;;;17.80;7.65;;;15.00;88.40;;;;;;4976954;28;20155;-87
2023/09/30 08:54:35;;;;;;;16.08;7.80;;;15.00;88.40;;;;;;4975716;28;20218;-87
2023/09/30 08:57:04;;;;;;;19.08;7.53;;;15.10;88.40;;;;;;4974766;28;20186;-87
2023/09/30 08:59:31;;;;;;;21.38;8.35;;;15.20;88.40;;;;;;4976865;28;20170;-87
2023/09/30 09:01:58;;;;;;;13.93;7.72;;;15.30;88.50;;;;;;4977009;28;20174;-86
2023/09/30 09:04:24;;;;;;;25.63;8.52;;;15.30;88.10;;;;;;4975878;28;20198;-88
2023/09/30 09:06:49;;;;;;;22.33;7.93;;;15.30;87.80;;;;;;4976622;28;20194;-87
2023/09/30 09:09:22;;;;;;;27.75;7.95;;;15.40;88.30;;;;;;4975605;28;20547;-88
2023/09/30 09:11:47;;;;;;;20.67;7.80;;;15.50;88.20;;;;;;4976794;28;20526;-88
2023/09/30 09:14:14;;;;;;;10.20;7.05;;;15.50;87.80;;;;;;4975329;28;20207;-87
2023/09/30 09:17:00;;;;;;;20.83;8.48;;;15.70;88.00;;;;;;4975396;28;20186;-86
2023/09/30 09:19:25;;;;;;;23.95;8.48;;;15.70;87.30;;;;;;4976439;28;20288;-86
2023/09/30 09:21:59;;;;;;;15.18;11.10;;;15.70;87.30;;;;;;4975353;28;20654;-87
2023/09/30 09:24:28;;;;;;;17.00;10.68;;;15.80;86.60;;;;;;4976455;28;20191;-86
2023/09/30 09:27:07;;;;;;;17.98;10.73;;;15.80;86.30;;;;;;4976443;28;20163;-87
2023/09/30 09:29:33;;;;;;;21.48;12.25;;;16.00;86.80;;;;;;4976693;28;20155;-88
2023/09/30 09:32:13;;;;;;;20.08;11.50;;;16.00;86.20;;;;;;4975059;28;20183;-89
2023/09/30 09:34:40;;;;;;;12.77;7.95;;;16.10;86.60;;;;;;4974887;28;20226;-90
2023/09/30 09:37:22;;;;;;;18.73;8.43;;;16.30;86.80;;;;;;4975157;28;20186;-87
2023/09/30 09:39:51;;;;;;;22.85;12.52;;;16.30;86.40;;;;;;4975186;28;20190;-87
2023/09/30 09:42:34;;;;;;;19.35;12.88;;;16.40;86.50;;;;;;4976370;28;20217;-87
2023/09/30 09:45:02;;;;;;;19.00;13.05;;;16.40;85.70;;;;;;4976205;28;20198;-87
2023/09/30 09:47:29;;;;;;;18.10;10.70;;;16.50;86.00;;;;;;4975844;28;20175;-88
2023/09/30 09:49:57;;;;;;;24.13;10.93;;;16.40;85.20;;;;;;4974882;28;20181;-87
2023/09/30 09:52:24;;;;;;;23.38;15.95;;;16.40;85.20;;;;;;4976008;28;20302;-86
2023/09/30 09:54:51;;;;;;;23.38;15.80;;;16.50;84.70;;;;;;4975929;28;20209;-89
2023/09/30 09:57:18;;;;;;;25.02;16.42;;;16.70;84.90;;;;;;4975699;28;20257;-88
2023/09/30 09:59:47;;;;;;;16.90;11.00;;;16.50;83.70;;;;;;4976337;28;20211;-87
2023/09/30 10:02:14;;;;;;;17.55;10.65;;;16.70;84.50;;;;;;4976128;28;20600;-87
2023/09/30 10:04:47;;;;;;;18.25;16.20;;;16.60;83.50;;;;;;4975723;28;20678;-87
2023/09/30 10:07:26;;;;;;;26.23;17.60;;;16.80;83.90;;;;;;4974477;28;20269;-87
2023/09/30 10:09:53;;;;;;;18.50;10.48;;;16.90;83.00;;;;;;4975921;28;20206;-87
2023/09/30 10:12:21;;;;;;;18.73;10.55;;;16.90;83.10;;;;;;4975631;28;20659;-87
2023/09/30 10:14:46;;;;;;;18.52;10.70;;;16.90;83.40;;;;;;4974667;28;20248;-88
2023/09/30 10:17:12;;;;;;;20.23;10.43;;;17.00;84.10;;;;;;4974624;28;20267;-87
2023/09/30 10:20:07;;;;;;;17.52;11.15;;;17.20;84.40;;;;;;4975573;28;20175;-87
2023/09/30 10:22:33;;;;;;;19.42;11.07;;;17.20;82.70;;;;;;4975563;28;20166;-89
2023/09/30 10:24:59;;;;;;;20.63;11.63;;;17.30;82.20;;;;;;4975444;28;20682;-87
2023/09/30 10:27:26;;;;;;;17.02;11.18;;;17.20;80.70;;;;;;4974358;28;20183;-87
2023/09/30 10:30:01;;;;;;;17.50;11.25;;;17.40;82.10;;;;;;4974188;28;20175;-88
2023/09/30 10:32:51;;;;;;;16.40;11.15;;;17.50;81.80;;;;;;4975399;28;20340;-87
2023/09/30 10:35:41;;;;;;;17.52;10.30;;;17.70;81.20;;;;;;4974390;28;20679;-89
2023/09/30 10:38:22;;;;;;;17.92;10.30;;;17.70;82.20;;;;;;4975386;28;20562;-88
2023/09/30 10:40:48;;;;;;;17.23;11.85;;;17.80;82.00;;;;;;4975264;28;20187;-89
2023/09/30 10:43:35;;;;;;;16.13;11.77;;;18.00;81.60;;;;;;4974021;28;20178;-87
2023/09/30 10:46:02;;;;;;;16.67;12.13;;;17.90;80.00;;;;;;4975216;28;20233;-87
2023/09/30 10:48:36;;;;;;;23.05;13.55;;;17.90;80.00;;;;;;4975864;28;20175;-87
2023/09/30 10:51:17;;;;;;;29.60;15.25;;;18.00;80.20;;;;;;4974639;28;20171;-88
2023/09/30 10:53:48;;;;;;;28.85;11.38;;;17.90;80.20;;;;;;4975481;28;20555;-90
2023/09/30 10:56:15;;;;;;;17.25;10.40;;;17.80;80.60;;;;;;4975252;28;20151;-89
2023/09/30 10:58:42;;;;;;;16.45;12.38;;;18.10;80.50;;;;;;4975335;28;20538;-88
2023/09/30 11:01:07;;;;;;;15.70;11.35;;;17.80;79.00;;;;;;4975682;28;20237;-88
2023/09/30 11:03:33;;;;;;;22.90;12.60;;;17.90;78.50;;;;;;4973998;28;20179;-88
2023/09/30 11:05:59;;;;;;;15.93;11.40;;;18.00;79.20;;;;;;4974845;28;20206;-89
2023/09/30 11:08:29;;;;;;;15.82;11.57;;;18.20;78.10;;;;;;4975089;28;20170;-89
2023/09/30 11:10:56;;;;;;;20.73;12.20;;;18.10;76.50;;;;;;4975356;28;20242;-87
2023/09/30 11:13:22;;;;;;;13.60;12.20;;;17.90;77.60;;;;;;4973896;28;20241;-88
2023/09/30 11:15:58;;;;;;;16.98;12.45;;;17.70;77.10;;;;;;4974635;28;20199;-87
2023/09/30 11:18:24;;;;;;;17.08;11.85;;;18.00;78.30;;;;;;4973708;28;20193;-89
2023/09/30 11:20:49;;;;;;;14.23;12.02;;;18.00;77.90;;;;;;4979775;28;20170;-87
2023/09/30 11:23:16;;;;;;;19.83;13.15;;;18.00;77.00;;;;;;4980339;28;20178;-88
2023/09/30 11:25:41;;;;;;;19.25;12.27;;;17.80;77.00;;;;;;4981681;28;20198;-88
2023/09/30 11:28:18;;;;;;;15.63;12.00;;;18.00;77.70;;;;;;4979791;28;20185;-88
2023/09/30 11:30:58;;;;;;;17.20;13.43;;;18.30;77.70;;;;;;4979831;28;20553;-87
2023/09/30 11:33:24;;;;;;;17.80;13.30;;;18.40;76.20;;;;;;4981130;28;20666;-88
2023/09/30 11:35:57;;;;;;;17.33;13.52;;;18.40;76.20;;;;;;4981081;28;20194;-87
2023/09/30 11:38:23;;;;;;;21.45;13.52;;;18.20;76.30;;;;;;4980328;28;20181;-87
2023/09/30 11:41:03;;;;;;;16.90;14.02;;;18.10;75.60;;;;;;4980149;28;20178;-87
2023/09/30 11:43:30;;;;;;;15.77;13.70;;;18.20;76.70;;;;;;4981849;28;20163;-87
2023/09/30 11:46:08;;;;;;;19.00;13.23;;;18.40;75.00;;;;;;4981513;28;20186;-88
2023/09/30 11:48:35;;;;;;;20.70;13.68;;;18.70;75.20;;;;;;4979445;28;20179;-87
2023/09/30 11:51:04;;;;;;;21.02;12.63;;;18.80;74.50;;;;;;4980648;28;20182;-88
2023/09/30 11:53:31;;;;;;;14.88;13.50;;;18.90;75.50;;;;;;4980728;28;20207;-88
2023/09/30 11:55:58;;;;;;;18.23;13.82;;;18.70;74.80;;;;;;4981154;28;20167;-87
2023/09/30 11:58:26;;;;;;;14.55;13.10;;;19.00;75.20;;;;;;4979786;28;20174;-87
2023/09/30 12:00:54;;;;;;;14.95;13.65;;;18.80;74.70;;;;;;4979620;28;20179;-87
2023/09/30 12:03:20;;;;;;;19.35;13.60;;;19.00;74.50;;;;;;4981095;28;20638;-87
2023/09/30 12:05:45;;;;;;;14.55;11.95;;;19.00;74.10;;;;;;4981221;28;20218;-87
2023/09/30 12:08:11;;;;;;;17.65;13.45;;;19.00;76.10;;;;;;4980985;28;20182;-87
2023/09/30 12:10:39;;;;;;;22.15;13.02;;;18.90;74.50;;;;;;4980914;28;20562;-86
2023/09/30 12:13:05;;;;;;;18.85;14.70;;;19.00;75.80;;;;;;4980806;28;20214;-87
2023/09/30 12:15:31;;;;;;;16.55;14.68;;;18.80;72.30;;;;;;4980603;28;20191;-87
2023/09/30 12:17:56;;;;;;;15.27;13.80;;;18.40;70.80;;;;;;4980793;28;20554;-86
2023/09/30 12:20:22;;;;;;;15.20;13.68;;;18.50;71.60;;;;;;4979962;28;20225;-87
2023/09/30 12:22:48;;;;;;;16.15;13.35;;;18.60;73.80;;;;;;4979315;28;20186;-87
2023/09/30 12:25:14;;;;;;;17.90;14.85;;;18.60;73.10;;;;;;4979373;28;20199;-87
2023/09/30 12:27:40;;;;;;;16.70;15.02;;;18.60;71.80;;;;;;4980612;28;20641;-86
2023/09/30 12:30:06;;;;;;;17.63;13.73;;;18.70;73.40;;;;;;4979918;28;20205;-86
2023/09/30 12:32:32;;;;;;;15.75;14.20;;;18.60;72.10;;;;;;4976898;28;20273;-86
2023/09/30 12:34:58;;;;;;;18.98;14.07;;;18.70;73.10;;;;;;4976241;28;20194;-86